createdAt,value
2022-11-26T00:01:17.628Z,4.13
2022-11-26T00:03:44.907Z,4.07
2022-11-26T00:06:29.665Z,4.16
2022-11-26T00:08:56.334Z,4.11
2022-11-26T00:11:22.900Z,4.12
2022-11-26T00:13:49.530Z,4.20
2022-11-26T00:16:16.263Z,4.17
2022-11-26T00:18:43.195Z,4.23
2022-11-26T00:21:18.826Z,4.20
2022-11-26T00:23:45.457Z,4.15
2022-11-26T00:26:17.139Z,4.25
2022-11-26T00:28:52.618Z,4.33
2022-11-26T00:31:19.458Z,4.26
2022-11-26T00:33:46.592Z,4.47
2022-11-26T00:36:25.261Z,4.46
2022-11-26T00:38:55.094Z,4.52
2022-11-26T00:41:25.523Z,4.49
2022-11-26T00:43:52.261Z,4.53
2022-11-26T00:46:21.474Z,4.48
2022-11-26T00:48:48.389Z,4.52
2022-11-26T00:51:18.792Z,4.65
2022-11-26T00:53:47.802Z,4.71
2022-11-26T00:56:18.702Z,4.75
2022-11-26T00:58:46.885Z,4.77
2022-11-26T01:01:17.542Z,4.80
2022-11-26T01:03:44.445Z,4.82
2022-11-26T01:06:14.759Z,4.88
2022-11-26T01:08:45.330Z,4.86
2022-11-26T01:11:15.593Z,4.91
2022-11-26T01:13:44.600Z,4.86
2022-11-26T01:16:18.954Z,4.79
2022-11-26T01:18:46.776Z,4.82
2022-11-26T01:21:13.949Z,4.90
2022-11-26T01:23:40.645Z,4.81
2022-11-26T01:26:13.549Z,4.81
2022-11-26T01:28:40.155Z,4.81
2022-11-26T01:31:13.733Z,4.76
2022-11-26T01:33:40.392Z,4.85
2022-11-26T01:36:20.443Z,4.77
2022-11-26T01:38:47.181Z,4.68
2022-11-26T01:41:26.966Z,4.63
2022-11-26T01:43:57.845Z,4.64
2022-11-26T01:46:26.430Z,4.76
2022-11-26T01:48:53.626Z,4.79
2022-11-26T01:51:26.544Z,4.73
2022-11-26T01:53:57.283Z,4.72
2022-11-26T01:56:37.209Z,4.58
2022-11-26T01:59:20.168Z,4.50
2022-11-26T02:01:48.810Z,4.47
2022-11-26T02:04:33.007Z,4.48
2022-11-26T02:06:59.657Z,4.46
2022-11-26T02:09:28.099Z,4.43
2022-11-26T02:11:54.851Z,4.44
2022-11-26T02:14:25.414Z,4.44
2022-11-26T02:17:27.088Z,4.43
2022-11-26T02:20:24.266Z,4.49
2022-11-26T02:22:51.803Z,4.48
2022-11-26T02:25:48.827Z,4.48
2022-11-26T02:28:21.194Z,4.49
2022-11-26T02:30:51.240Z,4.53
2022-11-26T02:33:31.078Z,4.58
2022-11-26T02:36:07.441Z,4.58
2022-11-26T02:38:36.855Z,4.59
2022-11-26T02:41:03.696Z,4.64
2022-11-26T02:43:32.264Z,4.69
2022-11-26T02:46:02.649Z,4.74
2022-11-26T02:48:34.403Z,4.76
2022-11-26T02:51:08.379Z,4.80
2022-11-26T02:53:37.075Z,4.82
2022-11-26T02:56:09.521Z,4.89
2022-11-26T02:58:37.057Z,4.88
2022-11-26T03:01:10.612Z,4.85
2022-11-26T03:03:46.426Z,4.91
2022-11-26T03:06:15.866Z,4.90
2022-11-26T03:08:45.081Z,4.90
2022-11-26T03:11:12.115Z,4.90
2022-11-26T03:13:38.761Z,4.90
2022-11-26T03:16:05.609Z,4.88
2022-11-26T03:18:32.352Z,4.96
2022-11-26T03:20:58.943Z,4.89
2022-11-26T03:23:25.537Z,5.00
2022-11-26T03:25:52.118Z,4.97
2022-11-26T03:28:18.755Z,4.99
2022-11-26T03:30:45.402Z,4.93
2022-11-26T03:33:12.110Z,4.94
2022-11-26T03:35:38.743Z,4.93
2022-11-26T03:38:05.377Z,5.00
2022-11-26T03:40:32.096Z,4.98
2022-11-26T03:42:58.736Z,5.24
2022-11-26T03:45:25.358Z,5.31
2022-11-26T03:47:51.949Z,5.15
2022-11-26T03:50:18.866Z,5.24
2022-11-26T03:52:45.484Z,5.08
2022-11-26T03:55:12.081Z,5.13
2022-11-26T03:57:38.973Z,5.10
2022-11-26T04:00:08.878Z,5.03
2022-11-26T04:02:36.661Z,5.12
2022-11-26T04:05:04.324Z,5.10
2022-11-26T04:07:30.982Z,5.24
2022-11-26T04:09:57.574Z,5.20
2022-11-26T04:12:24.115Z,5.35
2022-11-26T04:14:50.744Z,5.20
2022-11-26T04:17:17.324Z,5.36
2022-11-26T04:19:43.893Z,5.31
2022-11-26T04:22:10.533Z,5.34
2022-11-26T04:24:38.607Z,5.25
2022-11-26T04:27:05.302Z,5.26
2022-11-26T04:29:31.987Z,5.38
2022-11-26T04:31:58.667Z,5.31
2022-11-26T04:34:25.329Z,5.37
2022-11-26T04:36:51.868Z,5.29
2022-11-26T04:39:18.518Z,5.25
2022-11-26T04:41:45.380Z,5.29
2022-11-26T04:44:12.064Z,5.26
2022-11-26T04:46:38.773Z,5.24
2022-11-26T04:49:05.356Z,5.25
2022-11-26T04:51:32.107Z,5.35
2022-11-26T04:54:02.692Z,5.31
2022-11-26T04:56:29.975Z,5.38
2022-11-26T04:58:56.576Z,5.38
2022-11-26T05:01:23.172Z,5.41
2022-11-26T05:03:49.784Z,5.50
2022-11-26T05:06:16.595Z,5.48
2022-11-26T05:08:43.335Z,5.41
2022-11-26T05:11:13.176Z,5.40
2022-11-26T05:13:39.765Z,5.40
2022-11-26T05:16:06.814Z,5.39
2022-11-26T05:18:33.465Z,5.42
2022-11-26T05:21:00.064Z,5.35
2022-11-26T05:23:26.841Z,5.43
2022-11-26T05:25:53.497Z,5.39
2022-11-26T05:28:20.094Z,5.34
2022-11-26T05:30:46.721Z,5.24
2022-11-26T05:33:13.411Z,5.34
2022-11-26T05:35:40.030Z,5.31
2022-11-26T05:38:06.742Z,5.38
2022-11-26T05:40:33.394Z,5.30
2022-11-26T05:43:00.023Z,5.25
2022-11-26T05:45:26.693Z,5.25
2022-11-26T05:47:53.293Z,5.27
2022-11-26T05:50:19.905Z,5.27
2022-11-26T05:52:46.497Z,5.22
2022-11-26T05:55:13.112Z,5.20
2022-11-26T05:57:39.747Z,5.18
2022-11-26T06:00:06.999Z,5.17
2022-11-26T06:02:33.672Z,5.29
2022-11-26T06:05:00.375Z,5.23
2022-11-26T06:07:27.100Z,5.16
2022-11-26T06:09:53.861Z,5.28
2022-11-26T06:12:20.584Z,5.25
2022-11-26T06:14:47.315Z,5.29
2022-11-26T06:17:14.060Z,5.42
2022-11-26T06:19:40.670Z,5.35
2022-11-26T06:22:07.496Z,5.36
2022-11-26T06:24:34.240Z,5.32
2022-11-26T06:27:00.930Z,5.37
2022-11-26T06:29:28.317Z,5.25
2022-11-26T06:31:55.290Z,5.22
2022-11-26T06:34:22.215Z,5.27
2022-11-26T06:36:48.858Z,5.22
2022-11-26T06:39:15.488Z,5.14
2022-11-26T06:41:42.176Z,5.14
2022-11-26T06:44:08.774Z,5.08
2022-11-26T06:46:36.092Z,5.17
2022-11-26T06:49:04.493Z,5.06
2022-11-26T06:51:33.260Z,5.06
2022-11-26T06:53:59.968Z,5.04
2022-11-26T06:56:26.614Z,5.06
2022-11-26T06:58:55.366Z,5.13
2022-11-26T07:01:24.891Z,5.14
2022-11-26T07:03:52.105Z,5.14
2022-11-26T07:06:22.826Z,5.26
2022-11-26T07:08:51.009Z,5.17
2022-11-26T07:11:18.748Z,5.33
2022-11-26T07:13:45.407Z,5.24
2022-11-26T07:16:12.484Z,5.21
2022-11-26T07:18:39.432Z,5.21
2022-11-26T07:21:08.908Z,5.15
2022-11-26T07:23:36.077Z,5.21
2022-11-26T07:26:04.145Z,5.24
2022-11-26T07:28:31.489Z,5.33
2022-11-26T07:31:02.861Z,5.30
2022-11-26T07:33:29.863Z,5.37
2022-11-26T07:36:06.829Z,5.37
2022-11-26T07:38:34.890Z,5.31
2022-11-26T07:41:05.576Z,5.34
2022-11-26T07:43:34.908Z,5.32
2022-11-26T07:46:03.670Z,5.35
2022-11-26T07:48:31.670Z,5.28
2022-11-26T07:50:59.318Z,5.32
2022-11-26T07:53:31.470Z,5.39
2022-11-26T07:55:58.237Z,5.31
2022-11-26T07:58:24.863Z,5.44
2022-11-26T08:00:54.597Z,5.39
2022-11-26T08:03:21.654Z,5.34
2022-11-26T08:05:48.193Z,5.41
2022-11-26T08:08:14.824Z,5.53
2022-11-26T08:10:41.442Z,5.50
2022-11-26T08:13:08.073Z,5.56
2022-11-26T08:15:35.527Z,5.72
2022-11-26T08:18:02.132Z,5.77
2022-11-26T08:20:29.331Z,5.67
2022-11-26T08:22:56.059Z,5.76
2022-11-26T08:25:25.073Z,5.76
2022-11-26T08:27:51.707Z,5.77
2022-11-26T08:30:18.304Z,5.93
2022-11-26T08:32:44.929Z,5.95
2022-11-26T08:35:12.193Z,6.04
2022-11-26T08:37:38.792Z,6.11
2022-11-26T08:40:06.409Z,6.11
2022-11-26T08:42:32.977Z,6.17
2022-11-26T08:44:59.541Z,6.05
2022-11-26T08:47:26.136Z,6.07
2022-11-26T08:49:52.848Z,6.10
2022-11-26T08:52:19.437Z,6.17
2022-11-26T08:54:46.366Z,6.17
2022-11-26T08:57:13.239Z,6.18
2022-11-26T08:59:39.819Z,6.23
2022-11-26T09:02:07.982Z,6.25
2022-11-26T09:04:36.904Z,6.15
2022-11-26T09:07:03.870Z,6.19
2022-11-26T09:09:30.466Z,6.18
2022-11-26T09:12:02.338Z,6.16
2022-11-26T09:14:31.507Z,6.18
2022-11-26T09:16:58.661Z,6.24
2022-11-26T09:19:26.929Z,6.21
2022-11-26T09:21:53.631Z,6.22
2022-11-26T09:24:21.343Z,6.36
2022-11-26T09:26:48.999Z,6.41
2022-11-26T09:29:18.367Z,6.71
2022-11-26T09:32:15.284Z,6.91
2022-11-26T09:34:32.662Z,7.42
2022-11-26T09:36:59.254Z,7.59
2022-11-26T09:39:26.466Z,7.59
2022-11-26T09:41:59.467Z,7.50
2022-11-26T09:44:28.092Z,7.49
2022-11-26T09:47:12.189Z,7.30
2022-11-26T09:49:57.272Z,7.25
2022-11-26T09:52:28.490Z,7.15
2022-11-26T09:55:04.275Z,7.15
2022-11-26T09:57:41.217Z,7.13
2022-11-26T10:00:22.346Z,7.13
2022-11-26T10:02:52.126Z,7.10
2022-11-26T10:05:21.389Z,7.04
2022-11-26T10:08:05.721Z,7.04
2022-11-26T10:10:48.495Z,7.00
2022-11-26T10:13:28.376Z,6.97
2022-11-26T10:16:20.608Z,6.98
2022-11-26T10:19:13.727Z,6.97
2022-11-26T10:21:58.569Z,6.89
2022-11-26T10:24:32.100Z,7.00
2022-11-26T10:27:04.274Z,6.96
2022-11-26T10:29:39.198Z,7.01
2022-11-26T10:32:15.810Z,7.01
2022-11-26T10:34:50.906Z,6.99
2022-11-26T10:37:19.280Z,6.92
2022-11-26T10:39:45.972Z,6.92
2022-11-26T10:42:17.916Z,6.85
2022-11-26T10:44:45.644Z,6.99
2022-11-26T10:47:28.085Z,6.95
2022-11-26T10:53:06.258Z,6.90
2022-11-26T10:55:39.557Z,6.93
2022-11-26T10:58:13.918Z,7.00
2022-11-26T11:01:02.427Z,7.03
2022-11-26T11:04:09.346Z,6.95
2022-11-26T11:06:39.773Z,6.95
2022-11-26T11:09:29.031Z,7.00
2022-11-26T11:12:10.868Z,6.98
2022-11-26T11:14:42.998Z,7.03
2022-11-26T11:17:32.142Z,7.06
2022-11-26T11:20:03.420Z,7.13
2022-11-26T11:22:31.223Z,7.15
2022-11-26T11:24:59.816Z,7.05
2022-11-26T11:27:35.793Z,7.01
2022-11-26T11:30:02.946Z,7.15
2022-11-26T11:32:37.534Z,7.10
2022-11-26T11:35:22.415Z,7.09
2022-11-26T11:37:54.641Z,7.16
2022-11-26T11:40:25.550Z,7.13
2022-11-26T11:42:57.513Z,7.14
2022-11-26T11:45:34.824Z,7.18
2022-11-26T11:48:32.176Z,7.14
2022-11-26T11:51:13.428Z,7.11
2022-11-26T11:54:10.525Z,7.15
2022-11-26T11:56:41.849Z,7.11
2022-11-26T11:59:37.014Z,7.12
2022-11-26T12:02:19.010Z,7.13
2022-11-26T12:05:06.586Z,7.10
2022-11-26T12:07:40.836Z,7.06
2022-11-26T12:10:16.606Z,7.03
2022-11-26T12:12:50.780Z,7.00
2022-11-26T12:15:33.656Z,7.05
2022-11-26T12:18:17.025Z,7.02
2022-11-26T12:20:50.422Z,7.05
2022-11-26T12:23:38.317Z,7.12
2022-11-26T12:26:17.126Z,7.04
2022-11-26T12:29:02.047Z,7.28
2022-11-26T12:31:36.752Z,7.31
2022-11-26T12:34:12.728Z,7.20
2022-11-26T12:36:39.469Z,7.23
2022-11-26T12:39:18.841Z,7.26
2022-11-26T12:42:08.504Z,7.17
2022-11-26T12:44:39.572Z,7.33
2022-11-26T12:47:21.666Z,7.31
2022-11-26T12:50:19.451Z,7.29
2022-11-26T12:53:24.039Z,7.33
2022-11-26T12:55:56.956Z,7.42
2022-11-26T12:58:39.011Z,7.40
2022-11-26T13:01:05.782Z,7.40
2022-11-26T13:03:33.677Z,7.30
2022-11-26T13:06:07.659Z,7.33
2022-11-26T13:08:57.277Z,7.31
2022-11-26T13:11:40.010Z,7.25
2022-11-26T13:14:22.185Z,7.44
2022-11-26T13:17:05.107Z,7.43
2022-11-26T13:19:38.286Z,7.45
2022-11-26T13:22:28.655Z,7.50
2022-11-26T13:25:20.046Z,7.57
2022-11-26T13:28:02.104Z,7.66
2022-11-26T13:30:38.196Z,7.67
2022-11-26T13:33:21.906Z,7.81
2022-11-26T13:36:24.199Z,7.81
2022-11-26T13:39:20.752Z,7.85
2022-11-26T13:42:17.909Z,7.91
2022-11-26T13:45:09.855Z,7.78
2022-11-26T13:47:43.733Z,7.69
2022-11-26T13:50:17.363Z,7.68
2022-11-26T13:53:02.232Z,7.81
2022-11-26T13:55:34.519Z,7.65
2022-11-26T13:58:06.275Z,7.50
2022-11-26T14:00:35.469Z,7.47
2022-11-26T14:03:03.467Z,7.47
2022-11-26T14:06:08.154Z,7.98
2022-11-26T14:08:41.451Z,8.51
2022-11-26T14:11:08.938Z,9.35
2022-11-26T14:13:35.806Z,10.44
2022-11-26T14:16:04.757Z,10.63
2022-11-26T14:18:56.595Z,10.87
2022-11-26T14:21:24.083Z,10.47
2022-11-26T14:23:52.731Z,9.99
2022-11-26T14:26:27.175Z,9.46
2022-11-26T14:29:06.411Z,8.80
2022-11-26T14:31:34.712Z,8.51
2022-11-26T14:34:22.044Z,8.30
2022-11-26T14:36:55.427Z,8.11
2022-11-26T14:39:22.883Z,7.74
2022-11-26T14:41:52.104Z,7.52
2022-11-26T14:44:19.755Z,7.42
2022-11-26T14:46:49.023Z,7.32
2022-11-26T14:49:36.841Z,7.14
2022-11-26T14:52:13.899Z,6.96
2022-11-26T14:54:41.278Z,6.98
2022-11-26T14:57:17.050Z,6.90
2022-11-26T15:00:00.280Z,6.78
2022-11-26T15:02:29.313Z,6.79
2022-11-26T15:05:02.477Z,6.73
2022-11-26T15:07:30.651Z,6.70
2022-11-26T15:10:02.596Z,6.67
2022-11-26T15:12:29.904Z,6.62
2022-11-26T15:14:59.949Z,6.59
2022-11-26T15:17:28.710Z,6.53
2022-11-26T15:19:59.976Z,6.46
2022-11-26T15:22:39.129Z,6.39
2022-11-26T15:25:15.569Z,6.48
2022-11-26T15:27:53.105Z,6.48
2022-11-26T15:30:23.216Z,6.45
2022-11-26T15:33:01.347Z,6.40
2022-11-26T15:35:29.281Z,6.44
2022-11-26T15:37:56.019Z,6.37
2022-11-26T15:40:26.629Z,6.33
2022-11-26T15:42:57.848Z,6.32
2022-11-26T15:45:34.809Z,6.25
2022-11-26T15:48:03.448Z,6.24
2022-11-26T15:50:36.785Z,6.24
2022-11-26T15:53:07.592Z,6.23
2022-11-26T15:55:36.927Z,6.21
2022-11-26T15:58:10.735Z,6.19
2022-11-26T16:00:40.703Z,6.15
2022-11-26T16:03:37.921Z,6.10
2022-11-26T16:06:08.480Z,6.06
2022-11-26T16:08:35.300Z,6.05
2022-11-26T16:11:02.877Z,6.05
2022-11-26T16:13:31.756Z,5.98
2022-11-26T16:16:12.822Z,5.95
2022-11-26T16:18:58.951Z,6.02
2022-11-26T16:21:34.351Z,6.02
2022-11-26T16:24:06.531Z,5.99
2022-11-26T16:27:05.080Z,6.08
2022-11-26T16:29:33.659Z,6.06
2022-11-26T16:32:00.234Z,6.04
2022-11-26T16:34:28.045Z,6.01
2022-11-26T16:37:16.449Z,6.06
2022-11-26T16:39:43.065Z,6.13
2022-11-26T16:42:25.111Z,6.12
2022-11-26T16:44:51.785Z,5.96
2022-11-26T16:47:31.510Z,5.82
2022-11-26T16:49:58.247Z,5.74
2022-11-26T16:52:24.916Z,5.68
2022-11-26T16:54:51.669Z,5.65
2022-11-26T16:57:22.680Z,5.59
2022-11-26T16:59:55.687Z,5.46
2022-11-26T17:02:24.148Z,5.40
2022-11-26T17:04:51.143Z,5.32
2022-11-26T17:07:22.907Z,5.29
2022-11-26T17:09:49.755Z,5.33
2022-11-26T17:12:18.931Z,5.30
2022-11-26T17:14:49.124Z,5.30
2022-11-26T17:17:20.619Z,5.31
2022-11-26T17:19:51.009Z,5.25
2022-11-26T17:22:17.683Z,5.30
2022-11-26T17:24:44.366Z,5.21
2022-11-26T17:27:15.254Z,5.26
2022-11-26T17:29:44.412Z,5.27
2022-11-26T17:32:14.080Z,5.30
2022-11-26T17:34:41.151Z,5.32
2022-11-26T17:37:14.302Z,5.23
2022-11-26T17:39:41.364Z,5.17
2022-11-26T17:42:08.296Z,5.18
2022-11-26T17:44:34.983Z,5.32
2022-11-26T17:47:16.322Z,5.34
2022-11-26T17:49:45.315Z,5.29
2022-11-26T17:52:12.349Z,5.31
2022-11-26T17:54:39.428Z,5.28
2022-11-26T17:57:07.741Z,5.26
2022-11-26T17:59:34.350Z,5.16
2022-11-26T18:02:02.737Z,5.12
2022-11-26T18:04:29.920Z,4.98
2022-11-26T18:07:13.525Z,4.96
2022-11-26T18:09:41.969Z,4.94
2022-11-26T18:12:24.847Z,4.87
2022-11-26T18:14:53.756Z,4.84
2022-11-26T18:17:20.628Z,4.86
2022-11-26T18:19:47.567Z,4.80
2022-11-26T18:22:19.939Z,4.74
2022-11-26T18:24:56.454Z,4.73
2022-11-26T18:27:27.119Z,4.62
2022-11-26T18:29:54.045Z,4.61
2022-11-26T18:32:20.952Z,4.60
2022-11-26T18:34:50.112Z,4.61
2022-11-26T18:37:17.340Z,4.57
2022-11-26T18:39:43.962Z,4.58
2022-11-26T18:44:58.063Z,4.48
2022-11-26T18:47:24.901Z,4.43
2022-11-26T18:49:51.610Z,4.43
2022-11-26T18:52:18.200Z,4.44
2022-11-26T18:54:44.980Z,4.43
2022-11-26T18:57:11.608Z,4.43
2022-11-26T18:59:38.519Z,4.38
2022-11-26T19:02:05.481Z,4.43
2022-11-26T19:04:33.092Z,4.43
2022-11-26T19:06:59.706Z,4.39
2022-11-26T19:09:26.376Z,4.39
2022-11-26T19:11:54.447Z,4.38
2022-11-26T19:14:21.390Z,4.40
2022-11-26T19:16:50.374Z,4.41
2022-11-26T19:19:17.815Z,4.41
2022-11-26T19:21:44.538Z,4.44
2022-11-26T19:24:12.662Z,4.48
2022-11-26T19:26:41.256Z,4.48
2022-11-26T19:29:09.391Z,4.53
2022-11-26T19:31:38.909Z,4.58
2022-11-26T19:34:10.037Z,4.58
2022-11-26T19:36:37.519Z,4.62
2022-11-26T19:39:05.814Z,4.62
2022-11-26T19:41:32.849Z,4.57
2022-11-26T19:44:00.842Z,4.55
2022-11-26T19:46:28.140Z,4.38
2022-11-26T19:48:55.806Z,4.32
2022-11-26T19:51:24.491Z,4.22
2022-11-26T19:53:53.959Z,4.05
2022-11-26T19:56:27.826Z,3.99
2022-11-26T19:58:57.895Z,3.94
2022-11-26T20:01:26.753Z,3.94
2022-11-26T20:03:53.455Z,3.95
2022-11-26T20:06:23.183Z,3.94
2022-11-26T20:08:50.357Z,3.89
2022-11-26T20:11:18.419Z,3.92
2022-11-26T20:13:47.104Z,3.96
2022-11-26T20:16:17.822Z,3.99
2022-11-26T20:18:44.974Z,3.90
2022-11-26T20:21:19.666Z,3.78
2022-11-26T20:23:46.667Z,3.77
2022-11-26T20:26:31.577Z,3.80
2022-11-26T20:29:01.766Z,3.83
2022-11-26T20:31:28.838Z,3.96
2022-11-26T20:33:56.106Z,3.95
2022-11-26T20:36:23.844Z,4.02
2022-11-26T20:38:53.442Z,4.07
2022-11-26T20:41:20.205Z,4.10
2022-11-26T20:43:46.887Z,4.10
2022-11-26T20:46:14.517Z,4.16
2022-11-26T20:48:43.504Z,4.24
2022-11-26T20:51:13.618Z,4.21
2022-11-26T20:53:41.328Z,4.28
2022-11-26T20:56:08.906Z,4.27
2022-11-26T20:58:36.149Z,4.40
2022-11-26T21:01:03.009Z,4.53
2022-11-26T21:03:31.106Z,4.52
2022-11-26T21:06:02.817Z,4.55
2022-11-26T21:08:29.971Z,4.55
2022-11-26T21:10:56.836Z,4.55
2022-11-26T21:13:23.491Z,4.52
2022-11-26T21:15:50.272Z,4.49
2022-11-26T21:18:16.928Z,4.42
2022-11-26T21:20:44.461Z,4.43
2022-11-26T21:23:12.526Z,4.48
2022-11-26T21:25:41.122Z,4.46
2022-11-26T21:28:08.643Z,4.50
2022-11-26T21:30:36.181Z,4.47
2022-11-26T21:33:09.055Z,4.87
2022-11-26T21:35:36.758Z,4.92
2022-11-26T21:38:04.872Z,4.93
2022-11-26T21:40:32.047Z,4.88
2022-11-26T21:42:58.680Z,4.74
2022-11-26T21:45:27.557Z,4.65
2022-11-26T21:47:54.290Z,4.71
2022-11-26T21:50:21.219Z,4.76
2022-11-26T21:52:47.879Z,4.66
2022-11-26T21:55:14.728Z,4.61
2022-11-26T21:57:41.372Z,4.57
2022-11-26T22:00:08.653Z,4.57
2022-11-26T22:02:35.422Z,4.56
2022-11-26T22:05:02.082Z,4.59
2022-11-26T22:07:30.235Z,4.53
2022-11-26T22:09:57.788Z,4.51
2022-11-26T22:12:24.469Z,4.50
2022-11-26T22:14:51.177Z,4.55
2022-11-26T22:17:17.878Z,4.59
2022-11-26T22:19:44.544Z,4.54
2022-11-26T22:22:11.148Z,4.50
2022-11-26T22:24:37.859Z,4.55
2022-11-26T22:27:04.485Z,4.58
2022-11-26T22:29:31.133Z,4.55
2022-11-26T22:31:57.825Z,4.53
2022-11-26T22:34:26.485Z,4.52
2022-11-26T22:36:53.152Z,4.49
2022-11-26T22:39:20.170Z,4.47
2022-11-26T22:41:48.702Z,4.45
2022-11-26T22:44:16.738Z,4.41
2022-11-26T22:46:44.288Z,4.38
2022-11-26T22:49:17.764Z,4.36
2022-11-26T22:51:44.516Z,4.39
2022-11-26T22:54:13.597Z,4.36
2022-11-26T22:56:40.680Z,4.40
2022-11-26T22:59:09.053Z,4.33
2022-11-26T23:01:37.212Z,4.33
2022-11-26T23:04:06.931Z,4.39
2022-11-26T23:06:35.362Z,4.23
2022-11-26T23:09:04.917Z,4.14
2022-11-26T23:11:34.984Z,4.12
2022-11-26T23:14:02.233Z,4.04
2022-11-26T23:16:29.263Z,4.00
2022-11-26T23:18:57.237Z,3.92
2022-11-26T23:21:27.155Z,3.87
2022-11-26T23:23:54.834Z,3.87
2022-11-26T23:26:27.502Z,3.83
2022-11-26T23:28:56.304Z,3.80
2022-11-26T23:31:30.394Z,3.76
2022-11-26T23:33:57.718Z,3.74
2022-11-26T23:36:25.655Z,3.71
2022-11-26T23:38:52.365Z,3.68
2022-11-26T23:41:19.221Z,3.72
2022-11-26T23:43:46.061Z,3.72
2022-11-26T23:46:24.094Z,3.72
2022-11-26T23:48:51.714Z,3.61
2022-11-26T23:51:22.334Z,3.61
2022-11-26T23:53:50.674Z,3.62
2022-11-26T23:56:21.468Z,3.65
2022-11-26T23:58:50.119Z,3.61
